createdAt,value
2017-06-09T00:00:03.630Z,15.54
2017-06-09T00:00:44.163Z,15.57
2017-06-09T00:01:24.744Z,15.61
2017-06-09T00:02:05.389Z,15.61
2017-06-09T00:02:45.922Z,15.57
2017-06-09T00:03:26.514Z,15.54
2017-06-09T00:04:07.146Z,15.55
2017-06-09T00:04:47.696Z,15.52
2017-06-09T00:05:28.244Z,15.58
2017-06-09T00:06:08.910Z,15.54
2017-06-09T00:06:49.555Z,15.54
2017-06-09T00:07:30.202Z,15.54
2017-06-09T00:08:10.753Z,15.54
2017-06-09T00:08:51.412Z,15.49
2017-06-09T00:09:32.980Z,15.47
2017-06-09T00:10:13.538Z,15.54
2017-06-09T00:10:54.186Z,15.47
2017-06-09T00:11:34.738Z,15.51
2017-06-09T00:12:15.393Z,15.61
2017-06-09T00:12:55.940Z,15.54
2017-06-09T00:13:36.491Z,15.54
2017-06-09T00:14:17.017Z,15.49
2017-06-09T00:14:57.605Z,15.44
2017-06-09T00:15:38.211Z,15.4
2017-06-09T00:16:18.796Z,15.46
2017-06-09T00:16:59.315Z,15.42
2017-06-09T00:17:39.905Z,15.39
2017-06-09T00:18:20.605Z,15.49
2017-06-09T00:19:01.206Z,15.44
2017-06-09T00:19:41.721Z,15.44
2017-06-09T00:20:22.314Z,15.42
2017-06-09T00:21:02.958Z,15.43
2017-06-09T00:21:43.511Z,15.4
2017-06-09T00:22:24.017Z,15.43
2017-06-09T00:23:04.626Z,15.4
2017-06-09T00:23:45.220Z,15.42
2017-06-09T00:24:25.817Z,15.43
2017-06-09T00:25:06.365Z,15.43
2017-06-09T00:25:46.933Z,15.42
2017-06-09T00:26:27.527Z,15.43
2017-06-09T00:27:08.121Z,15.44
2017-06-09T00:27:48.707Z,15.43
2017-06-09T00:28:29.357Z,15.42
2017-06-09T00:29:09.940Z,15.36
2017-06-09T00:29:50.489Z,15.37
2017-06-09T00:30:31.060Z,15.35
2017-06-09T00:31:11.694Z,15.33
2017-06-09T00:31:52.242Z,15.35
2017-06-09T00:32:32.796Z,15.37
2017-06-09T00:33:13.350Z,15.39
2017-06-09T00:33:53.891Z,15.39
2017-06-09T00:34:34.448Z,15.36
2017-06-09T00:35:15.090Z,15.29
2017-06-09T00:35:55.741Z,15.31
2017-06-09T00:36:36.295Z,15.29
2017-06-09T00:37:16.855Z,15.28
2017-06-09T00:37:57.507Z,15.27
2017-06-09T00:38:38.050Z,15.29
2017-06-09T00:39:18.703Z,15.33
2017-06-09T00:39:59.286Z,15.36
2017-06-09T00:40:39.811Z,15.29
2017-06-09T00:41:20.351Z,15.28
2017-06-09T00:42:00.907Z,15.25
2017-06-09T00:42:41.458Z,15.31
2017-06-09T00:43:23.111Z,15.27
2017-06-09T00:44:03.686Z,15.27
2017-06-09T00:44:44.250Z,15.31
2017-06-09T00:45:24.830Z,15.35
2017-06-09T00:46:05.395Z,15.31
2017-06-09T00:46:45.908Z,15.25
2017-06-09T00:47:26.513Z,15.22
2017-06-09T00:48:07.127Z,15.28
2017-06-09T00:48:47.758Z,15.27
2017-06-09T00:49:28.383Z,15.24
2017-06-09T00:50:09.014Z,15.21
2017-06-09T00:50:49.555Z,15.21
2017-06-09T00:51:30.094Z,15.11
2017-06-09T00:52:10.675Z,15.24
2017-06-09T00:52:51.238Z,15.15
2017-06-09T00:53:31.879Z,15.22
2017-06-09T00:54:12.511Z,15.15
2017-06-09T00:54:53.056Z,15.11
2017-06-09T00:55:33.636Z,15.1
2017-06-09T00:56:14.298Z,15.1
2017-06-09T00:56:54.939Z,15.14
2017-06-09T00:57:35.584Z,15.1
2017-06-09T00:58:16.242Z,15.18
2017-06-09T00:58:56.774Z,15.1
2017-06-09T00:59:37.350Z,15.09
2017-06-09T01:00:18.029Z,15.07
2017-06-09T01:00:58.665Z,15.09
2017-06-09T01:01:39.297Z,15.06
2017-06-09T01:02:19.858Z,15.19
2017-06-09T01:03:01.422Z,15.07
2017-06-09T01:03:42.056Z,15.07
2017-06-09T01:04:22.638Z,15.19
2017-06-09T01:05:04.209Z,15.07
2017-06-09T01:05:44.876Z,15.07
2017-06-09T01:06:25.594Z,15.15
2017-06-09T01:07:06.188Z,15.07
2017-06-09T01:07:46.828Z,15.04
2017-06-09T01:08:27.478Z,15.11
2017-06-09T01:09:09.306Z,15.1
2017-06-09T01:09:49.933Z,15.03
2017-06-09T01:10:30.530Z,15.04
2017-06-09T01:11:11.048Z,15.11
2017-06-09T01:11:51.662Z,15.14
2017-06-09T01:12:32.231Z,15.09
2017-06-09T01:13:12.832Z,15.1
2017-06-09T01:13:53.361Z,15.06
2017-06-09T01:14:33.946Z,15.09
2017-06-09T01:15:14.537Z,15.1
2017-06-09T01:15:55.136Z,15.14
2017-06-09T01:16:35.658Z,15.18
2017-06-09T01:17:16.252Z,15.07
2017-06-09T01:17:56.841Z,15.04
2017-06-09T01:18:37.439Z,15.03
2017-06-09T01:19:17.968Z,15.15
2017-06-09T01:19:58.576Z,15.1
2017-06-09T01:20:39.220Z,15.1
2017-06-09T01:21:19.760Z,15.03
2017-06-09T01:22:00.333Z,15.07
2017-06-09T01:22:40.878Z,15
2017-06-09T01:23:21.404Z,15.06
2017-06-09T01:24:01.956Z,15
2017-06-09T01:24:42.523Z,15.06
2017-06-09T01:25:23.109Z,15.03
2017-06-09T01:26:03.701Z,14.99
2017-06-09T01:26:44.228Z,15.03
2017-06-09T01:27:24.818Z,14.97
2017-06-09T01:28:05.412Z,14.99
2017-06-09T01:28:46.003Z,14.99
2017-06-09T01:29:26.533Z,14.99
2017-06-09T01:30:07.124Z,14.94
2017-06-09T01:30:47.690Z,14.96
2017-06-09T01:31:28.242Z,14.94
2017-06-09T01:32:08.876Z,14.97
2017-06-09T01:32:49.448Z,14.97
2017-06-09T01:33:30.082Z,14.94
2017-06-09T01:34:10.644Z,15
2017-06-09T01:34:51.227Z,14.91
2017-06-09T01:35:31.822Z,14.94
2017-06-09T01:36:12.348Z,14.94
2017-06-09T01:36:52.954Z,14.97
2017-06-09T01:37:33.535Z,14.94
2017-06-09T01:38:14.126Z,14.91
2017-06-09T01:38:54.659Z,14.85
2017-06-09T01:39:35.240Z,14.92
2017-06-09T01:40:15.880Z,14.88
2017-06-09T01:40:56.438Z,14.89
2017-06-09T01:41:36.955Z,14.89
2017-06-09T01:42:17.546Z,14.85
2017-06-09T01:42:58.146Z,14.89
2017-06-09T01:43:38.728Z,14.84
2017-06-09T01:44:19.257Z,14.89
2017-06-09T01:44:59.850Z,14.89
2017-06-09T01:45:40.521Z,14.84
2017-06-09T01:46:21.053Z,14.85
2017-06-09T01:47:01.610Z,14.85
2017-06-09T01:47:42.156Z,14.85
2017-06-09T01:48:22.706Z,14.94
2017-06-09T01:49:03.273Z,14.84
2017-06-09T01:49:43.823Z,14.81
2017-06-09T01:50:24.376Z,14.89
2017-06-09T01:51:05.029Z,14.92
2017-06-09T01:51:45.681Z,14.85
2017-06-09T01:52:26.225Z,14.88
2017-06-09T01:53:06.766Z,14.88
2017-06-09T01:53:47.417Z,14.86
2017-06-09T01:54:27.977Z,14.88
2017-06-09T01:55:08.522Z,14.88
2017-06-09T01:55:49.089Z,14.84
2017-06-09T01:56:29.741Z,14.79
2017-06-09T01:57:10.397Z,14.73
2017-06-09T01:57:51.039Z,14.73
2017-06-09T01:58:31.600Z,14.73
2017-06-09T01:59:12.148Z,14.78
2017-06-09T01:59:52.773Z,14.89
2017-06-09T02:00:33.307Z,14.79
2017-06-09T02:01:13.939Z,14.81
2017-06-09T02:01:54.529Z,14.78
2017-06-09T02:02:35.071Z,14.79
2017-06-09T02:03:15.719Z,14.78
2017-06-09T02:03:56.284Z,14.77
2017-06-09T02:04:36.805Z,14.86
2017-06-09T02:05:17.410Z,14.82
2017-06-09T02:05:58.035Z,14.79
2017-06-09T02:06:38.565Z,14.77
2017-06-09T02:07:19.207Z,14.82
2017-06-09T02:07:59.789Z,14.73
2017-06-09T02:08:40.313Z,14.7
2017-06-09T02:09:20.910Z,14.69
2017-06-09T02:10:01.546Z,14.79
2017-06-09T02:10:42.066Z,14.82
2017-06-09T02:11:22.663Z,14.7
2017-06-09T02:12:03.211Z,14.72
2017-06-09T02:12:43.771Z,14.73
2017-06-09T02:13:24.301Z,14.72
2017-06-09T02:14:04.856Z,14.79
2017-06-09T02:14:45.457Z,14.68
2017-06-09T02:15:26.048Z,14.7
2017-06-09T02:16:06.573Z,14.68
2017-06-09T02:16:47.177Z,14.68
2017-06-09T02:17:27.752Z,14.72
2017-06-09T02:18:08.354Z,14.78
2017-06-09T02:18:48.877Z,14.62
2017-06-09T02:19:29.504Z,14.65
2017-06-09T02:20:10.107Z,14.65
2017-06-09T02:20:50.647Z,14.63
2017-06-09T02:21:31.242Z,14.6
2017-06-09T02:22:11.860Z,14.63
2017-06-09T02:22:52.389Z,14.62
2017-06-09T02:23:32.990Z,14.59
2017-06-09T02:24:13.615Z,14.53
2017-06-09T02:24:54.168Z,14.62
2017-06-09T02:25:34.717Z,14.54
2017-06-09T02:26:15.268Z,14.55
2017-06-09T02:26:55.819Z,14.55
2017-06-09T02:27:36.470Z,14.54
2017-06-09T02:28:17.021Z,14.59
2017-06-09T02:28:57.572Z,14.59
2017-06-09T02:29:38.108Z,14.55
2017-06-09T02:30:18.686Z,14.55
2017-06-09T02:30:59.283Z,14.53
2017-06-09T02:31:39.878Z,14.54
2017-06-09T02:32:20.411Z,14.51
2017-06-09T02:33:01.016Z,14.47
2017-06-09T02:33:41.595Z,14.44
2017-06-09T02:34:22.180Z,14.5
2017-06-09T02:35:02.732Z,14.43
2017-06-09T02:35:43.707Z,14.43
2017-06-09T02:36:24.311Z,14.45
2017-06-09T02:37:04.897Z,14.47
2017-06-09T02:37:45.424Z,14.37
2017-06-09T02:38:26.028Z,14.4
2017-06-09T02:39:06.614Z,14.47
2017-06-09T02:39:47.165Z,14.45
2017-06-09T02:40:27.785Z,14.48
2017-06-09T02:41:08.300Z,14.45
2017-06-09T02:41:48.817Z,14.41
2017-06-09T02:42:29.450Z,14.51
2017-06-09T02:43:10.056Z,14.43
2017-06-09T02:43:50.586Z,14.43
2017-06-09T02:44:31.192Z,14.47
2017-06-09T02:45:11.831Z,14.44
2017-06-09T02:45:52.371Z,14.41
2017-06-09T02:46:32.942Z,14.53
2017-06-09T02:47:13.569Z,14.45
2017-06-09T02:47:54.102Z,14.55
2017-06-09T02:48:34.696Z,14.47
2017-06-09T02:49:15.322Z,14.44
2017-06-09T02:49:55.843Z,14.44
2017-06-09T02:50:36.450Z,14.59
2017-06-09T02:51:17.028Z,14.51
2017-06-09T02:51:57.622Z,14.55
2017-06-09T02:52:38.153Z,14.6
2017-06-09T02:53:18.756Z,14.55
2017-06-09T02:53:59.346Z,14.59
2017-06-09T02:54:39.877Z,14.54
2017-06-09T02:55:20.506Z,14.53
2017-06-09T02:56:01.134Z,14.53
2017-06-09T02:56:41.659Z,14.59
2017-06-09T02:57:22.258Z,14.59
2017-06-09T02:58:02.888Z,14.59
2017-06-09T02:58:43.417Z,14.5
2017-06-09T02:59:24.016Z,14.59
2017-06-09T03:00:04.636Z,14.62
2017-06-09T03:00:45.171Z,14.59
2017-06-09T03:01:25.760Z,14.53
2017-06-09T03:02:06.765Z,14.55
2017-06-09T03:02:47.351Z,14.59
2017-06-09T03:03:27.915Z,14.55
2017-06-09T03:04:09.844Z,14.58
2017-06-09T03:04:50.451Z,14.53
2017-06-09T03:05:30.964Z,14.58
2017-06-09T03:06:11.576Z,14.55
2017-06-09T03:06:52.193Z,14.55
2017-06-09T03:07:32.723Z,14.51
2017-06-09T03:08:13.327Z,14.45
2017-06-09T03:08:53.954Z,14.44
2017-06-09T03:09:34.477Z,14.45
2017-06-09T03:10:15.087Z,14.41
2017-06-09T03:10:55.624Z,14.54
2017-06-09T03:11:36.196Z,14.5
2017-06-09T03:12:16.857Z,14.45
2017-06-09T03:12:57.484Z,14.48
2017-06-09T03:13:38.050Z,14.43
2017-06-09T03:14:18.592Z,14.47
2017-06-09T03:14:59.136Z,14.48
2017-06-09T03:15:39.765Z,14.45
2017-06-09T03:16:20.282Z,14.47
2017-06-09T03:17:00.896Z,14.48
2017-06-09T03:17:41.523Z,14.43
2017-06-09T03:18:22.044Z,14.47
2017-06-09T03:19:02.650Z,14.48
2017-06-09T03:19:43.276Z,14.44
2017-06-09T03:20:23.815Z,14.43
2017-06-09T03:21:04.406Z,14.47
2017-06-09T03:21:44.950Z,14.45
2017-06-09T03:22:25.500Z,14.36
2017-06-09T03:23:06.152Z,14.36
2017-06-09T03:23:46.703Z,14.45
2017-06-09T03:24:27.345Z,14.47
2017-06-09T03:25:07.910Z,14.44
2017-06-09T03:25:48.455Z,14.36
2017-06-09T03:26:29.013Z,14.36
2017-06-09T03:27:09.559Z,14.4
2017-06-09T03:27:50.116Z,14.33
2017-06-09T03:28:30.660Z,14.4
2017-06-09T03:29:11.214Z,14.33
2017-06-09T03:29:51.766Z,14.32
2017-06-09T03:30:32.392Z,14.35
2017-06-09T03:31:12.931Z,14.33
2017-06-09T03:31:53.515Z,14.32
2017-06-09T03:32:34.146Z,14.3
2017-06-09T03:33:14.678Z,14.3
2017-06-09T03:33:55.268Z,14.26
2017-06-09T03:34:35.897Z,14.3
2017-06-09T03:35:16.435Z,14.28
2017-06-09T03:35:57.029Z,14.36
2017-06-09T03:36:37.605Z,14.3
2017-06-09T03:37:18.204Z,14.36
2017-06-09T03:37:58.739Z,14.4
2017-06-09T03:38:39.330Z,14.33
2017-06-09T03:39:19.942Z,14.41
2017-06-09T03:40:00.507Z,14.44
2017-06-09T03:40:41.058Z,14.4
2017-06-09T03:41:21.605Z,14.4
2017-06-09T03:42:02.160Z,14.44
2017-06-09T03:42:42.711Z,14.51
2017-06-09T03:43:23.260Z,14.47
2017-06-09T03:44:03.810Z,14.44
2017-06-09T03:44:44.350Z,14.58
2017-06-09T03:45:24.938Z,14.53
2017-06-09T03:46:05.486Z,14.55
2017-06-09T03:46:46.037Z,14.65
2017-06-09T03:47:26.588Z,14.54
2017-06-09T03:48:07.137Z,14.65
2017-06-09T03:48:47.700Z,14.66
2017-06-09T03:49:28.344Z,14.66
2017-06-09T03:50:08.969Z,14.66
2017-06-09T03:50:49.489Z,14.77
2017-06-09T03:51:30.094Z,14.78
2017-06-09T03:52:10.721Z,14.78
2017-06-09T03:52:51.257Z,14.73
2017-06-09T03:53:31.877Z,14.73
2017-06-09T03:54:12.481Z,14.81
2017-06-09T03:54:53.003Z,14.92
2017-06-09T03:55:33.618Z,14.94
2017-06-09T03:56:14.198Z,14.89
2017-06-09T03:56:54.795Z,15.03
2017-06-09T03:57:35.310Z,14.96
2017-06-09T03:58:15.908Z,15.07
2017-06-09T03:58:56.504Z,15.02
2017-06-09T03:59:37.120Z,15.07
2017-06-09T04:00:17.613Z,15.1
2017-06-09T04:00:58.231Z,15.09
2017-06-09T04:01:38.814Z,15.25
2017-06-09T04:02:19.403Z,15.19
2017-06-09T04:02:59.938Z,15.24
2017-06-09T04:03:40.518Z,15.29
2017-06-09T04:04:21.119Z,15.29
2017-06-09T04:05:01.703Z,15.33
2017-06-09T04:05:42.357Z,15.31
2017-06-09T04:06:22.992Z,15.33
2017-06-09T04:07:03.455Z,15.42
2017-06-09T04:07:44.002Z,15.4
2017-06-09T04:08:24.558Z,15.42
2017-06-09T04:09:05.102Z,15.49
2017-06-09T04:09:45.659Z,15.47
2017-06-09T04:10:26.187Z,15.52
2017-06-09T04:11:06.778Z,15.58
2017-06-09T04:11:47.332Z,15.55
2017-06-09T04:12:27.878Z,15.55
2017-06-09T04:13:08.431Z,15.62
2017-06-09T04:13:48.988Z,15.64
2017-06-09T04:14:29.645Z,15.73
2017-06-09T04:15:10.251Z,15.83
2017-06-09T04:15:50.821Z,15.73
2017-06-09T04:16:31.369Z,15.83
2017-06-09T04:17:12.023Z,15.86
2017-06-09T04:17:52.649Z,15.92
2017-06-09T04:18:33.295Z,15.94
2017-06-09T04:19:13.746Z,16.13
2017-06-09T04:19:54.340Z,16.16
2017-06-09T04:20:34.926Z,16.16
2017-06-09T04:21:15.529Z,16.36
2017-06-09T04:21:56.079Z,16.39
2017-06-09T04:22:36.645Z,16.46
2017-06-09T04:23:17.247Z,16.54
2017-06-09T04:23:57.835Z,16.65
2017-06-09T04:24:38.362Z,16.76
2017-06-09T04:25:18.969Z,16.83
2017-06-09T04:25:59.587Z,16.99
2017-06-09T04:26:40.138Z,16.91
2017-06-09T04:27:20.757Z,17.05
2017-06-09T04:28:01.344Z,17.08
2017-06-09T04:28:41.959Z,17.19
2017-06-09T04:29:22.571Z,17.26
2017-06-09T04:30:03.198Z,17.36
2017-06-09T04:30:43.719Z,17.49
2017-06-09T04:31:24.319Z,17.57
2017-06-09T04:32:04.922Z,17.65
2017-06-09T04:32:45.505Z,17.78
2017-06-09T04:33:26.056Z,17.8
2017-06-09T04:34:07.680Z,17.89
2017-06-09T04:34:48.283Z,18.04
2017-06-09T04:35:28.930Z,18.01
2017-06-09T04:36:09.840Z,18.13
2017-06-09T04:36:50.465Z,18.11
2017-06-09T04:37:31.110Z,18.23
2017-06-09T04:38:11.646Z,18.28
2017-06-09T04:38:52.179Z,18.35
2017-06-09T04:39:32.759Z,18.38
2017-06-09T04:40:13.355Z,18.35
2017-06-09T04:40:53.895Z,18.41
2017-06-09T04:41:34.829Z,18.45
2017-06-09T04:42:16.093Z,18.41
2017-06-09T04:42:56.618Z,18.4
2017-06-09T04:43:37.190Z,18.44
2017-06-09T04:44:17.795Z,18.4
2017-06-09T04:44:58.307Z,18.4
2017-06-09T04:45:38.852Z,18.38
2017-06-09T04:46:19.488Z,18.34
2017-06-09T04:47:00.004Z,18.38
2017-06-09T04:47:40.598Z,18.33
2017-06-09T04:48:21.242Z,18.34
2017-06-09T04:49:01.757Z,18.33
2017-06-09T04:49:42.380Z,18.31
2017-06-09T04:50:23.098Z,18.26
2017-06-09T04:51:03.611Z,18.28
2017-06-09T04:51:44.233Z,18.23
2017-06-09T04:52:24.814Z,18.29
2017-06-09T04:53:05.403Z,18.22
2017-06-09T04:53:45.950Z,18.29
2017-06-09T04:54:26.523Z,18.33
2017-06-09T04:55:07.218Z,18.34
2017-06-09T04:55:47.738Z,18.41
2017-06-09T04:56:28.288Z,18.41
2017-06-09T04:57:08.818Z,18.4
2017-06-09T04:57:49.358Z,18.49
2017-06-09T04:58:29.915Z,18.45
2017-06-09T04:59:10.447Z,18.5
2017-06-09T04:59:51.430Z,18.47
2017-06-09T05:00:32.076Z,18.47
2017-06-09T05:01:12.631Z,18.49
2017-06-09T05:01:53.179Z,18.4
2017-06-09T05:02:33.727Z,18.4
2017-06-09T05:03:14.281Z,18.44
2017-06-09T05:03:54.828Z,18.45
2017-06-09T05:04:35.407Z,18.44
2017-06-09T05:05:15.928Z,18.44
2017-06-09T05:05:56.480Z,18.49
2017-06-09T05:06:37.046Z,18.41
2017-06-09T05:07:17.583Z,18.43
2017-06-09T05:07:58.112Z,18.47
2017-06-09T05:08:38.634Z,18.47
2017-06-09T05:09:19.265Z,18.53
2017-06-09T05:09:59.855Z,18.56
2017-06-09T05:10:40.439Z,18.63
2017-06-09T05:11:20.965Z,18.62
2017-06-09T05:12:01.566Z,18.68
2017-06-09T05:12:42.166Z,18.73
2017-06-09T05:13:22.749Z,18.75
2017-06-09T05:14:03.284Z,18.83
2017-06-09T05:14:43.876Z,18.93
2017-06-09T05:15:24.450Z,18.9
2017-06-09T05:16:05.045Z,18.95
2017-06-09T05:16:45.587Z,19.04
2017-06-09T05:17:26.098Z,19.18
2017-06-09T05:18:06.734Z,19.16
2017-06-09T05:18:47.257Z,19.31
2017-06-09T05:19:27.856Z,19.29
2017-06-09T05:20:08.384Z,19.36
2017-06-09T05:20:48.972Z,19.51
2017-06-09T05:21:29.581Z,19.49
2017-06-09T05:22:10.104Z,19.47
2017-06-09T05:22:50.724Z,19.56
2017-06-09T05:23:31.276Z,19.55
2017-06-09T05:24:11.826Z,19.54
2017-06-09T05:24:52.355Z,19.56
2017-06-09T05:25:32.986Z,19.58
2017-06-09T05:26:13.543Z,19.52
2017-06-09T05:26:54.188Z,19.55
2017-06-09T05:27:34.759Z,19.7
2017-06-09T05:28:15.361Z,19.59
2017-06-09T05:28:55.890Z,19.64
2017-06-09T05:29:36.414Z,19.59
2017-06-09T05:30:16.967Z,19.64
2017-06-09T05:30:57.517Z,19.58
2017-06-09T05:31:38.145Z,19.59
2017-06-09T05:32:18.698Z,19.63
2017-06-09T05:32:59.338Z,19.59
2017-06-09T05:33:39.898Z,19.51
2017-06-09T05:34:20.559Z,19.4
2017-06-09T05:35:01.103Z,19.47
2017-06-09T05:35:41.636Z,19.58
2017-06-09T05:36:22.156Z,19.45
2017-06-09T05:37:02.749Z,19.58
2017-06-09T05:37:43.386Z,19.52
2017-06-09T05:38:23.916Z,19.47
2017-06-09T05:39:04.445Z,19.48
2017-06-09T05:39:45.071Z,19.48
2017-06-09T05:40:25.682Z,19.52
2017-06-09T05:41:06.244Z,19.55
2017-06-09T05:41:47.829Z,19.58
2017-06-09T05:42:28.468Z,19.56
2017-06-09T05:43:08.988Z,19.62
2017-06-09T05:43:49.602Z,19.67
2017-06-09T05:44:30.233Z,19.62
2017-06-09T05:45:10.754Z,19.59
2017-06-09T05:45:51.359Z,19.58
2017-06-09T05:46:31.882Z,19.55
2017-06-09T05:47:12.397Z,19.49
2017-06-09T05:47:52.966Z,19.39
2017-06-09T05:48:33.502Z,19.39
2017-06-09T05:49:14.034Z,19.39
2017-06-09T05:49:54.637Z,19.47
2017-06-09T05:50:35.189Z,19.49
2017-06-09T05:51:15.760Z,19.39
2017-06-09T05:51:56.290Z,19.51
2017-06-09T05:52:36.889Z,19.49
2017-06-09T05:53:17.410Z,19.47
2017-06-09T05:53:57.945Z,19.37
2017-06-09T05:54:38.490Z,19.36
2017-06-09T05:55:19.008Z,19.34
2017-06-09T05:55:59.593Z,19.3
2017-06-09T05:56:40.117Z,19.27
2017-06-09T05:57:20.643Z,19.24
2017-06-09T05:58:01.165Z,19.22
2017-06-09T05:58:41.692Z,19.15
2017-06-09T05:59:22.296Z,19.16
2017-06-09T06:00:02.887Z,19.15
2017-06-09T06:00:43.437Z,19.16
2017-06-09T06:01:23.988Z,19.15
2017-06-09T06:02:04.649Z,19.07
2017-06-09T06:02:45.298Z,19.14
2017-06-09T06:03:25.848Z,19.18
2017-06-09T06:04:06.393Z,19.27
2017-06-09T06:04:47.048Z,19.22
2017-06-09T06:05:27.591Z,19.29
2017-06-09T06:06:08.199Z,19.27
2017-06-09T06:06:48.765Z,19.48
2017-06-09T06:07:29.356Z,19.37
2017-06-09T06:08:09.870Z,19.55
2017-06-09T06:08:50.489Z,19.56
2017-06-09T06:09:31.105Z,19.71
2017-06-09T06:10:11.659Z,19.79
2017-06-09T06:10:52.311Z,19.81
2017-06-09T06:11:32.854Z,19.94
2017-06-09T06:12:13.516Z,20.04
2017-06-09T06:12:54.090Z,20.03
2017-06-09T06:13:34.651Z,20.04
2017-06-09T06:14:15.284Z,20.13
2017-06-09T06:14:55.846Z,20.16
2017-06-09T06:15:36.431Z,20.13
2017-06-09T06:16:17.025Z,20.09
2017-06-09T06:16:57.574Z,20.1
2017-06-09T06:17:38.116Z,20.03
2017-06-09T06:18:18.700Z,20.04
2017-06-09T06:18:59.237Z,19.99
2017-06-09T06:19:39.889Z,20.03
2017-06-09T06:20:20.429Z,19.96
2017-06-09T06:21:01.034Z,19.89
2017-06-09T06:21:41.661Z,19.95
2017-06-09T06:22:22.237Z,19.94
2017-06-09T06:23:02.805Z,19.92
2017-06-09T06:23:43.345Z,19.95
2017-06-09T06:24:23.965Z,19.95
2017-06-09T06:25:04.465Z,19.96
2017-06-09T06:25:45.102Z,19.92
2017-06-09T06:26:25.663Z,20.02
2017-06-09T06:27:06.241Z,20.03
2017-06-09T06:27:46.921Z,20.13
2017-06-09T06:28:27.498Z,20.16
2017-06-09T06:29:08.107Z,20.21
2017-06-09T06:29:48.625Z,20.24
2017-06-09T06:30:29.219Z,20.4
2017-06-09T06:31:09.765Z,20.41
2017-06-09T06:31:50.329Z,20.56
2017-06-09T06:32:30.962Z,20.58
2017-06-09T06:33:11.513Z,20.67
2017-06-09T06:33:52.160Z,20.82
2017-06-09T06:34:33.738Z,20.81
2017-06-09T06:35:14.286Z,20.85
2017-06-09T06:35:54.835Z,20.96
2017-06-09T06:36:35.391Z,21.05
2017-06-09T06:37:15.934Z,21.09
2017-06-09T06:37:56.487Z,21.15
2017-06-09T06:38:37.049Z,21.12
2017-06-09T06:39:17.589Z,21.21
2017-06-09T06:39:58.170Z,21.24
2017-06-09T06:40:38.742Z,21.2
2017-06-09T06:41:19.370Z,21.12
2017-06-09T06:41:59.948Z,21.12
2017-06-09T06:42:40.542Z,21.06
2017-06-09T06:43:21.052Z,21.09
2017-06-09T06:44:01.670Z,21.09
2017-06-09T06:44:42.258Z,21.03
2017-06-09T06:45:22.847Z,20.99
2017-06-09T06:46:03.381Z,20.95
2017-06-09T06:46:43.956Z,20.93
2017-06-09T06:47:24.521Z,20.82
2017-06-09T06:48:05.053Z,20.84
2017-06-09T06:48:45.630Z,20.81
2017-06-09T06:49:26.194Z,20.74
2017-06-09T06:50:06.674Z,20.69
2017-06-09T06:50:47.279Z,20.65
2017-06-09T06:51:27.833Z,20.7
2017-06-09T06:52:08.365Z,20.62
2017-06-09T06:52:48.924Z,20.6
2017-06-09T06:53:29.472Z,20.63
2017-06-09T06:54:10.024Z,20.6
2017-06-09T06:54:50.615Z,20.58
2017-06-09T06:55:31.234Z,20.48
2017-06-09T06:56:11.760Z,20.58
2017-06-09T06:56:52.326Z,20.51
2017-06-09T06:57:32.897Z,20.48
2017-06-09T06:58:13.510Z,20.48
2017-06-09T06:58:53.981Z,20.5
2017-06-09T07:53:17.133Z,22.36
2017-06-09T07:53:57.602Z,22.3
2017-06-09T09:21:20.839Z,21.58
2017-06-09T09:22:01.376Z,21.64
2017-06-09T09:22:42.056Z,21.6
2017-06-09T09:23:22.653Z,21.51
2017-06-09T09:24:03.236Z,21.5
2017-06-09T09:24:43.762Z,21.45
2017-06-09T09:25:24.366Z,21.45
2017-06-09T09:26:04.949Z,21.52
2017-06-09T09:26:45.519Z,21.43
2017-06-09T09:27:26.150Z,21.4
2017-06-09T09:28:06.685Z,21.35
2017-06-09T09:28:47.232Z,21.3
2017-06-09T09:29:27.774Z,21.24
2017-06-09T09:30:08.428Z,21.24
2017-06-09T09:30:49.287Z,21.25
2017-06-09T09:31:29.836Z,21.17
2017-06-09T09:32:10.431Z,21.2
2017-06-09T09:32:51.103Z,21.22
2017-06-09T09:33:31.718Z,21.12
2017-06-09T09:34:12.281Z,21.02
2017-06-09T09:34:52.822Z,21.02
2017-06-09T09:35:33.378Z,20.96
2017-06-09T09:36:13.993Z,20.9
2017-06-09T09:36:54.574Z,20.82
2017-06-09T09:37:35.202Z,20.82
2017-06-09T09:38:15.855Z,20.69
2017-06-09T09:38:56.508Z,20.69
2017-06-09T09:39:37.047Z,20.63
2017-06-09T09:40:17.609Z,20.63
2017-06-09T09:40:58.162Z,20.65
2017-06-09T09:41:38.681Z,20.65
2017-06-09T09:42:19.261Z,20.7
2017-06-09T09:42:59.885Z,20.66
2017-06-09T09:43:40.411Z,20.75
2017-06-09T09:44:21.030Z,20.7
2017-06-09T09:45:01.663Z,20.8
2017-06-09T09:45:42.117Z,20.66
2017-06-09T09:46:23.889Z,20.7
2017-06-09T09:47:04.487Z,20.62
2017-06-09T09:47:46.093Z,20.7
2017-06-09T09:48:28.711Z,20.65
2017-06-09T09:49:09.341Z,20.6
2017-06-09T09:49:54.712Z,20.62
2017-06-09T09:50:35.310Z,20.55
2017-06-09T09:51:15.871Z,20.48
2017-06-09T09:51:56.453Z,20.47
2017-06-09T09:52:37.068Z,20.48
2017-06-09T09:53:17.657Z,20.47
2017-06-09T09:53:58.290Z,20.4
2017-06-09T09:54:39.856Z,20.37
2017-06-09T09:55:21.474Z,20.37
2017-06-09T09:56:02.013Z,20.26
2017-06-09T09:56:42.566Z,20.1
2017-06-09T09:57:24.259Z,20.13
2017-06-09T09:58:04.899Z,20.03
2017-06-09T09:58:45.445Z,19.95
2017-06-09T09:59:26.109Z,19.79
2017-06-09T10:00:06.656Z,19.73
2017-06-09T10:00:48.237Z,19.66
2017-06-09T10:01:28.789Z,19.64
2017-06-09T10:02:09.341Z,19.56
2017-06-09T10:02:50.925Z,19.47
2017-06-09T10:03:31.561Z,19.44
2017-06-09T10:04:12.104Z,19.31
2017-06-09T10:04:52.655Z,19.3
2017-06-09T10:05:33.215Z,19.22
2017-06-09T10:06:13.768Z,19.11
2017-06-09T10:06:54.304Z,18.98
2017-06-09T10:07:35.940Z,18.83
2017-06-09T10:08:16.535Z,18.83
2017-06-09T10:08:57.081Z,18.78
2017-06-09T10:09:37.646Z,18.74
2017-06-09T10:10:18.224Z,18.66
2017-06-09T10:10:58.837Z,18.74
2017-06-09T10:11:39.398Z,18.66
2017-06-09T10:12:20.048Z,18.66
2017-06-09T10:13:00.752Z,18.73
2017-06-09T10:13:41.346Z,18.73
2017-06-09T10:14:21.909Z,18.7
2017-06-09T10:15:02.556Z,18.68
2017-06-09T10:15:43.104Z,18.71
2017-06-09T10:16:23.721Z,18.74
2017-06-09T10:17:04.281Z,18.7
2017-06-09T10:17:44.819Z,18.8
2017-06-09T10:18:25.452Z,18.78
2017-06-09T10:19:06.021Z,18.8
2017-06-09T10:19:47.603Z,18.83
2017-06-09T10:20:28.156Z,18.95
2017-06-09T10:21:08.786Z,18.9
2017-06-09T10:21:49.325Z,18.89
2017-06-09T10:22:29.899Z,18.84
2017-06-09T10:23:10.498Z,18.93
2017-06-09T10:23:51.089Z,18.83
2017-06-09T10:24:31.629Z,18.96
2017-06-09T10:25:12.328Z,18.86
2017-06-09T10:25:52.904Z,18.89
2017-06-09T10:26:33.493Z,18.88
2017-06-09T10:27:14.198Z,18.89
2017-06-09T10:27:54.603Z,18.86
2017-06-09T10:28:35.198Z,18.8
2017-06-09T10:29:16.824Z,18.81
2017-06-09T10:29:57.392Z,18.8
2017-06-09T10:30:38.030Z,18.84
2017-06-09T10:31:18.682Z,18.83
2017-06-09T10:31:59.340Z,18.81
2017-06-09T10:32:39.885Z,18.81
2017-06-09T10:33:20.436Z,18.73
2017-06-09T10:34:00.999Z,18.71
2017-06-09T10:34:41.537Z,18.62
2017-06-09T10:35:22.087Z,18.62
2017-06-09T10:36:02.616Z,18.44
2017-06-09T10:36:43.222Z,18.4
2017-06-09T10:37:23.838Z,18.35
2017-06-09T10:38:04.376Z,18.29
2017-06-09T10:38:44.989Z,18.25
2017-06-09T10:39:25.799Z,18.15
2017-06-09T10:40:06.426Z,18.15
2017-06-09T10:40:47.047Z,18.16
2017-06-09T10:41:27.626Z,18.01
2017-06-09T10:42:08.210Z,18.04
2017-06-09T10:42:48.734Z,18.01
2017-06-09T10:43:29.345Z,17.89
2017-06-09T10:44:09.937Z,17.9
2017-06-09T10:44:50.508Z,17.89
2017-06-09T10:45:31.050Z,17.87
2017-06-09T10:46:11.639Z,17.83
2017-06-09T10:46:52.186Z,17.8
2017-06-09T10:47:32.731Z,17.72
2017-06-09T10:48:13.275Z,17.72
2017-06-09T10:48:53.855Z,17.74
2017-06-09T10:49:34.406Z,17.6
2017-06-09T10:50:14.970Z,17.63
2017-06-09T10:50:55.584Z,17.65
2017-06-09T10:51:36.150Z,17.63
2017-06-09T10:52:16.731Z,17.57
2017-06-09T10:52:57.331Z,17.63
2017-06-09T10:53:37.867Z,17.6
2017-06-09T10:54:18.432Z,17.6
2017-06-09T10:54:59.038Z,17.64
2017-06-09T10:55:39.633Z,17.64
2017-06-09T10:56:20.154Z,17.57
2017-06-09T10:57:01.184Z,17.64
2017-06-09T10:57:42.784Z,17.6
2017-06-09T10:58:23.371Z,17.59
2017-06-09T10:59:03.889Z,17.63
2017-06-09T10:59:44.480Z,17.67
2017-06-09T11:00:25.093Z,17.59
2017-06-09T11:01:05.681Z,17.65
2017-06-09T11:01:46.224Z,17.6
2017-06-09T11:02:26.794Z,17.64
2017-06-09T11:03:09.387Z,17.56
2017-06-09T11:03:49.931Z,17.67
2017-06-09T11:04:30.579Z,17.63
2017-06-09T11:05:11.113Z,17.54